Arvada, Wyoming
Current Conditions -  °F | °C
As of 11:53 AM on Thursday 18 Dec 2014 (Local Time) from KBYG Reporting Station
Clear Clear  
Wind Chill: 35°   Ceiling: Unl
Heat Index: 41°   Visibility: 10mi
Dew Point: 16°   Wind: 9mph
Humidity: 36%   Direction: 180°S
Pressure: 29.98"   Gusts: NA
Location:  44.65°N, 106.13°W
Report Text: KBYG 181853Z AUTO 18008KT 10SM CLR 05/M09 A2998 RMK AO2 SLP171 T00501089
Loading
Personal Weather Stations






























Interactive Weather Map New forecast layout! Learn more

10-Day Weather Forecast

Advertisements
Track Severe Weather on mobile